UAL499 KSEA-KSFO
Flight info
| Callsign | UAL499 |
|---|---|
| Flight time | 1h 40m |
| Altitude | 39000 |
| Route | HAROB6 ERAVE Q1 ETCHY MLBEC BDEGA4 |
| Aircraft | B737/M-SDE2E3FGHIRWXY/LB1 |
Departure
| Time | 2026-05-04 14:23 |
|---|---|
| Airport | Seattle–Tacoma International Airport (KSEA) |
Arrival
| Time | 2026-05-04 16:04 |
|---|---|
| Airport | San Francisco International Airport (KSFO) |
| Time | Latitude | Longitude | Altitude | Speed | Heading |
|---|---|---|---|---|---|
| 2026-05-04 13:51 | 47.43840 | -122.29848 | 376 ft | 0 kts | 73° |
| 2026-05-04 14:08 | 47.43838 | -122.29860 | 373 ft | 2 kts | 73° |
| 2026-05-04 14:08 | 47.43834 | -122.29881 | 374 ft | 2 kts | 73° |
| 2026-05-04 14:08 | 47.43829 | -122.29903 | 374 ft | 2 kts | 73° |
| 2026-05-04 14:09 | 47.43820 | -122.29944 | 374 ft | 2 kts | 73° |
| 2026-05-04 14:09 | 47.43817 | -122.29961 | 375 ft | 0 kts | 73° |
| 2026-05-04 14:10 | 47.43801 | -122.29990 | 375 ft | 0 kts | 20° |
| 2026-05-04 14:10 | 47.43795 | -122.29992 | 374 ft | 1 kts | 15° |
| 2026-05-04 14:10 | 47.43794 | -122.29993 | 374 ft | 0 kts | 15° |
| 2026-05-04 14:13 | 47.43794 | -122.29992 | 374 ft | 1 kts | 15° |
| 2026-05-04 14:13 | 47.43845 | -122.29971 | 376 ft | 10 kts | 16° |
| 2026-05-04 14:13 | 47.43914 | -122.29948 | 376 ft | 9 kts | 359° |
| 2026-05-04 14:13 | 47.43961 | -122.29991 | 378 ft | 8 kts | 313° |
| 2026-05-04 14:14 | 47.44014 | -122.30075 | 379 ft | 0 kts | 314° |
| 2026-05-04 14:14 | 47.44023 | -122.30089 | 380 ft | 0 kts | 314° |
| 2026-05-04 14:17 | 47.44047 | -122.30199 | 380 ft | 19 kts | 252° |
| 2026-05-04 14:17 | 47.43990 | -122.30375 | 379 ft | 19 kts | 267° |
| 2026-05-04 14:17 | 47.44060 | -122.30639 | 379 ft | 12 kts | 2° |
| 2026-05-04 14:18 | 47.44185 | -122.30634 | 383 ft | 28 kts | 1° |
| 2026-05-04 14:18 | 47.44667 | -122.30632 | 396 ft | 32 kts | 0° |
| 2026-05-04 14:19 | 47.45071 | -122.30625 | 413 ft | 24 kts | 360° |
| 2026-05-04 14:19 | 47.45227 | -122.30625 | 421 ft | 20 kts | 1° |
| 2026-05-04 14:19 | 47.45366 | -122.30622 | 427 ft | 24 kts | 0° |
| 2026-05-04 14:19 | 47.45565 | -122.30621 | 435 ft | 29 kts | 1° |
| 2026-05-04 14:20 | 47.45757 | -122.30617 | 439 ft | 26 kts | 1° |
| 2026-05-04 14:20 | 47.45934 | -122.30617 | 441 ft | 24 kts | 0° |
| 2026-05-04 14:20 | 47.46104 | -122.30617 | 437 ft | 25 kts | 0° |
| 2026-05-04 14:21 | 47.46352 | -122.30617 | 420 ft | 5 kts | 349° |
| 2026-05-04 14:21 | 47.46379 | -122.30684 | 414 ft | 11 kts | 274° |
| 2026-05-04 14:21 | 47.46338 | -122.30776 | 412 ft | 10 kts | 182° |
| 2026-05-04 14:21 | 47.46326 | -122.30776 | 413 ft | 0 kts | 181° |
| 2026-05-04 14:22 | 47.46330 | -122.30776 | 412 ft | 0 kts | 181° |
| 2026-05-04 14:22 | 47.46158 | -122.30780 | 426 ft | 56 kts | 181° |
| 2026-05-04 14:23 | 47.44592 | -122.30794 | 476 ft | 156 kts | 181° |
| 2026-05-04 14:23 | 47.43533 | -122.30788 | 1061 ft | 154 kts | 180° |
| 2026-05-04 14:23 | 47.42472 | -122.30776 | 1646 ft | 154 kts | 181° |
| 2026-05-04 14:24 | 47.41371 | -122.30796 | 2091 ft | 167 kts | 182° |
| 2026-05-04 14:24 | 47.40157 | -122.30826 | 2600 ft | 184 kts | 181° |
| 2026-05-04 14:24 | 47.38831 | -122.30853 | 3146 ft | 201 kts | 182° |
| 2026-05-04 14:24 | 47.37358 | -122.30914 | 3723 ft | 218 kts | 182° |
| 2026-05-04 14:25 | 47.35802 | -122.30995 | 4315 ft | 235 kts | 184° |
| 2026-05-04 14:25 | 47.32631 | -122.32918 | 5467 ft | 270 kts | 229° |
| 2026-05-04 14:25 | 47.31684 | -122.35318 | 6199 ft | 278 kts | 251° |
| 2026-05-04 14:26 | 47.31213 | -122.38074 | 7022 ft | 282 kts | 261° |
| 2026-05-04 14:26 | 47.30904 | -122.40941 | 7835 ft | 286 kts | 263° |
| 2026-05-04 14:26 | 47.30677 | -122.43820 | 8601 ft | 289 kts | 269° |
| 2026-05-04 14:26 | 47.30697 | -122.46814 | 9372 ft | 293 kts | 273° |
| 2026-05-04 14:27 | 47.30795 | -122.49777 | 10099 ft | 296 kts | 274° |
| 2026-05-04 14:27 | 47.30907 | -122.52867 | 10607 ft | 310 kts | 274° |
| 2026-05-04 14:27 | 47.31019 | -122.56110 | 11012 ft | 326 kts | 274° |
| 2026-05-04 14:27 | 47.31123 | -122.59530 | 11397 ft | 342 kts | 274° |
| 2026-05-04 14:28 | 47.31224 | -122.63110 | 11781 ft | 358 kts | 273° |
| 2026-05-04 14:28 | 47.31321 | -122.66756 | 12433 ft | 363 kts | 272° |
| 2026-05-04 14:28 | 47.31419 | -122.70488 | 13155 ft | 366 kts | 272° |
| 2026-05-04 14:28 | 47.31505 | -122.74202 | 13867 ft | 370 kts | 271° |
| 2026-05-04 14:29 | 47.30603 | -122.81715 | 15307 ft | 380 kts | 251° |
| 2026-05-04 14:29 | 47.28595 | -122.88963 | 16683 ft | 389 kts | 248° |
| 2026-05-04 14:30 | 47.27525 | -122.92625 | 17349 ft | 394 kts | 248° |
| 2026-05-04 14:30 | 47.26453 | -122.96369 | 18008 ft | 398 kts | 249° |
| 2026-05-04 14:30 | 47.23840 | -123.03587 | 19266 ft | 409 kts | 234° |
| 2026-05-04 14:31 | 47.21907 | -123.06728 | 19900 ft | 415 kts | 224° |
| 2026-05-04 14:31 | 47.17403 | -123.12042 | 21075 ft | 424 kts | 217° |
| 2026-05-04 14:32 | 47.12582 | -123.17123 | 22211 ft | 433 kts | 216° |
| 2026-05-04 14:32 | 47.10115 | -123.19708 | 22759 ft | 437 kts | 217° |
| 2026-05-04 14:32 | 47.07637 | -123.22320 | 23296 ft | 441 kts | 217° |
| 2026-05-04 14:32 | 47.05174 | -123.24933 | 23818 ft | 445 kts | 217° |
| 2026-05-04 14:33 | 47.02647 | -123.27625 | 24348 ft | 449 kts | 217° |
| 2026-05-04 14:33 | 47.00147 | -123.30299 | 24884 ft | 453 kts | 217° |
| 2026-05-04 14:33 | 46.97577 | -123.33054 | 25422 ft | 457 kts | 217° |
| 2026-05-04 14:33 | 46.94988 | -123.35716 | 25938 ft | 461 kts | 214° |
| 2026-05-04 14:34 | 46.92197 | -123.38030 | 26450 ft | 465 kts | 206° |
| 2026-05-04 14:34 | 46.89183 | -123.39699 | 26940 ft | 469 kts | 196° |
| 2026-05-04 14:34 | 46.85966 | -123.40656 | 27425 ft | 472 kts | 186° |
| 2026-05-04 14:34 | 46.82667 | -123.40934 | 27904 ft | 475 kts | 179° |
| 2026-05-04 14:35 | 46.79368 | -123.40816 | 28376 ft | 478 kts | 176° |
| 2026-05-04 14:35 | 46.76038 | -123.40530 | 28836 ft | 481 kts | 175° |
| 2026-05-04 14:35 | 46.72684 | -123.40202 | 29310 ft | 485 kts | 175° |
| 2026-05-04 14:35 | 46.69324 | -123.39893 | 29781 ft | 488 kts | 175° |
| 2026-05-04 14:36 | 46.65940 | -123.39625 | 30249 ft | 491 kts | 175° |
| 2026-05-04 14:36 | 46.62535 | -123.39406 | 30918 ft | 488 kts | 176° |
| 2026-05-04 14:36 | 46.59135 | -123.39228 | 31514 ft | 487 kts | 176° |
| 2026-05-04 14:36 | 46.55800 | -123.39083 | 32075 ft | 486 kts | 176° |
| 2026-05-04 14:37 | 46.52410 | -123.38956 | 32634 ft | 486 kts | 176° |
| 2026-05-04 14:37 | 46.49031 | -123.38842 | 33202 ft | 485 kts | 176° |
| 2026-05-04 14:37 | 46.45711 | -123.38738 | 33752 ft | 485 kts | 176° |
| 2026-05-04 14:37 | 46.42353 | -123.38635 | 34298 ft | 484 kts | 176° |
| 2026-05-04 14:38 | 46.38998 | -123.38535 | 34836 ft | 484 kts | 176° |
| 2026-05-04 14:38 | 46.35601 | -123.38432 | 35337 ft | 484 kts | 175° |
| 2026-05-04 14:38 | 46.32212 | -123.38329 | 35837 ft | 484 kts | 175° |
| 2026-05-04 14:38 | 46.28816 | -123.38226 | 36336 ft | 484 kts | 175° |
| 2026-05-04 14:39 | 46.25447 | -123.38123 | 36805 ft | 484 kts | 175° |
| 2026-05-04 14:39 | 46.22023 | -123.38019 | 37217 ft | 485 kts | 175° |
| 2026-05-04 14:39 | 46.18599 | -123.37914 | 37611 ft | 486 kts | 175° |
| 2026-05-04 14:40 | 46.11800 | -123.37704 | 38342 ft | 488 kts | 175° |
| 2026-05-04 14:40 | 46.08416 | -123.37601 | 38669 ft | 489 kts | 174° |
| 2026-05-04 14:40 | 46.05046 | -123.37498 | 38961 ft | 490 kts | 174° |
| 2026-05-04 14:40 | 46.01595 | -123.37390 | 39044 ft | 494 kts | 174° |
| 2026-05-04 14:41 | 45.94737 | -123.37183 | 39016 ft | 489 kts | 174° |
| 2026-05-04 14:42 | 45.81233 | -123.36777 | 38970 ft | 487 kts | 174° |
| 2026-05-04 14:42 | 45.74458 | -123.36571 | 38973 ft | 487 kts | 174° |
| 2026-05-04 14:43 | 45.67711 | -123.36366 | 38996 ft | 488 kts | 174° |
| 2026-05-04 14:43 | 45.60933 | -123.36162 | 39000 ft | 487 kts | 174° |
| 2026-05-04 14:44 | 45.54190 | -123.35959 | 38999 ft | 487 kts | 174° |
| 2026-05-04 14:44 | 45.47393 | -123.35756 | 39003 ft | 486 kts | 174° |
| 2026-05-04 14:45 | 45.40651 | -123.35555 | 39007 ft | 486 kts | 174° |
| 2026-05-04 14:45 | 45.33886 | -123.35354 | 39008 ft | 486 kts | 174° |
| 2026-05-04 14:46 | 45.27150 | -123.35153 | 39006 ft | 486 kts | 174° |
| 2026-05-04 14:46 | 45.20402 | -123.34952 | 38992 ft | 485 kts | 174° |
| 2026-05-04 14:47 | 45.13641 | -123.34752 | 38977 ft | 485 kts | 174° |
| 2026-05-04 14:47 | 45.06901 | -123.34553 | 38973 ft | 484 kts | 174° |
| 2026-05-04 14:48 | 45.00164 | -123.34354 | 38973 ft | 484 kts | 174° |
| 2026-05-04 14:48 | 44.93441 | -123.34157 | 38975 ft | 484 kts | 174° |
| 2026-05-04 14:49 | 44.86709 | -123.33960 | 38979 ft | 484 kts | 174° |
| 2026-05-04 14:49 | 44.79976 | -123.33763 | 38982 ft | 483 kts | 173° |
| 2026-05-04 14:50 | 44.73294 | -123.33569 | 38985 ft | 482 kts | 173° |
| 2026-05-04 14:50 | 44.66606 | -123.33373 | 38991 ft | 481 kts | 173° |
| 2026-05-04 14:51 | 44.59885 | -123.33177 | 38997 ft | 481 kts | 173° |
| 2026-05-04 14:51 | 44.53193 | -123.32983 | 38999 ft | 480 kts | 173° |
| 2026-05-04 14:52 | 44.46542 | -123.32777 | 39001 ft | 480 kts | 173° |
| 2026-05-04 14:52 | 44.39855 | -123.32513 | 39003 ft | 479 kts | 173° |
| 2026-05-04 14:53 | 44.33215 | -123.32235 | 39005 ft | 479 kts | 173° |
| 2026-05-04 14:53 | 44.26553 | -123.31956 | 39007 ft | 479 kts | 173° |
| 2026-05-04 14:54 | 44.19891 | -123.31685 | 39010 ft | 479 kts | 173° |
| 2026-05-04 14:54 | 44.13214 | -123.31417 | 39013 ft | 478 kts | 173° |
| 2026-05-04 14:55 | 44.06550 | -123.31152 | 39016 ft | 478 kts | 173° |
| 2026-05-04 14:55 | 43.99898 | -123.30888 | 39017 ft | 478 kts | 173° |
| 2026-05-04 14:56 | 43.93258 | -123.30625 | 38999 ft | 477 kts | 173° |
| 2026-05-04 14:56 | 43.86638 | -123.30366 | 38995 ft | 475 kts | 173° |
| 2026-05-04 14:57 | 43.80022 | -123.30106 | 39015 ft | 475 kts | 173° |
| 2026-05-04 14:57 | 43.73408 | -123.29845 | 39020 ft | 475 kts | 173° |
| 2026-05-04 14:58 | 43.66783 | -123.29584 | 39017 ft | 474 kts | 173° |
| 2026-05-04 14:58 | 43.60219 | -123.29327 | 39017 ft | 475 kts | 173° |
| 2026-05-04 14:59 | 43.53608 | -123.29069 | 39015 ft | 474 kts | 173° |
| 2026-05-04 15:00 | 43.43738 | -123.28684 | 39014 ft | 474 kts | 173° |
| 2026-05-04 15:00 | 43.38245 | -123.28471 | 39014 ft | 473 kts | 173° |
| 2026-05-04 15:01 | 43.27288 | -123.28046 | 39014 ft | 473 kts | 173° |
| 2026-05-04 15:01 | 43.20699 | -123.27792 | 39015 ft | 472 kts | 173° |
| 2026-05-04 15:02 | 43.14172 | -123.27541 | 39014 ft | 472 kts | 173° |
| 2026-05-04 15:02 | 43.07608 | -123.27289 | 39012 ft | 471 kts | 173° |
| 2026-05-04 15:03 | 43.01075 | -123.27038 | 39010 ft | 470 kts | 174° |
| 2026-05-04 15:03 | 42.94515 | -123.26786 | 39011 ft | 470 kts | 174° |
| 2026-05-04 15:04 | 42.87967 | -123.26535 | 38994 ft | 470 kts | 174° |
| 2026-05-04 15:04 | 42.81463 | -123.26287 | 38932 ft | 469 kts | 174° |
| 2026-05-04 15:05 | 42.74945 | -123.26039 | 38874 ft | 468 kts | 174° |
| 2026-05-04 15:05 | 42.68473 | -123.25794 | 38925 ft | 467 kts | 174° |
| 2026-05-04 15:06 | 42.61993 | -123.25547 | 38992 ft | 469 kts | 174° |
| 2026-05-04 15:07 | 42.52220 | -123.25181 | 38979 ft | 466 kts | 174° |
| 2026-05-04 15:07 | 42.45718 | -123.24935 | 38975 ft | 466 kts | 174° |
| 2026-05-04 15:08 | 42.39264 | -123.24696 | 38972 ft | 466 kts | 174° |
| 2026-05-04 15:08 | 42.32778 | -123.24456 | 38985 ft | 465 kts | 174° |
| 2026-05-04 15:09 | 42.26328 | -123.24218 | 39005 ft | 465 kts | 174° |
| 2026-05-04 15:09 | 42.19857 | -123.23980 | 39013 ft | 465 kts | 174° |
| 2026-05-04 15:10 | 42.10185 | -123.23625 | 39082 ft | 466 kts | 174° |
| 2026-05-04 15:11 | 42.00465 | -123.23268 | 38937 ft | 468 kts | 174° |
| 2026-05-04 15:11 | 41.97214 | -123.23151 | 38822 ft | 465 kts | 174° |
| 2026-05-04 15:11 | 41.93987 | -123.23035 | 38788 ft | 463 kts | 174° |
| 2026-05-04 15:12 | 41.87537 | -123.22799 | 38760 ft | 467 kts | 174° |
| 2026-05-04 15:12 | 41.81059 | -123.22564 | 38719 ft | 463 kts | 174° |
| 2026-05-04 15:13 | 41.74614 | -123.22332 | 38717 ft | 461 kts | 174° |
| 2026-05-04 15:13 | 41.68197 | -123.22099 | 38762 ft | 461 kts | 174° |
| 2026-05-04 15:14 | 41.61751 | -123.21867 | 38795 ft | 460 kts | 174° |
| 2026-05-04 15:14 | 41.55390 | -123.21642 | 38929 ft | 460 kts | 174° |
| 2026-05-04 15:15 | 41.48982 | -123.21418 | 39060 ft | 462 kts | 175° |
| 2026-05-04 15:15 | 41.42578 | -123.21199 | 39015 ft | 460 kts | 175° |
| 2026-05-04 15:16 | 41.33012 | -123.20873 | 38992 ft | 458 kts | 175° |
| 2026-05-04 15:17 | 41.23455 | -123.20609 | 39029 ft | 459 kts | 175° |
| 2026-05-04 15:17 | 41.13916 | -123.20380 | 39035 ft | 458 kts | 176° |
| 2026-05-04 15:18 | 41.07520 | -123.20224 | 38999 ft | 457 kts | 176° |
| 2026-05-04 15:19 | 40.98009 | -123.19988 | 38939 ft | 455 kts | 176° |
| 2026-05-04 15:19 | 40.88557 | -123.19751 | 39030 ft | 457 kts | 176° |
| 2026-05-04 15:20 | 40.82208 | -123.19591 | 39025 ft | 455 kts | 176° |
| 2026-05-04 15:20 | 40.75868 | -123.19434 | 39009 ft | 454 kts | 176° |
| 2026-05-04 15:21 | 40.69588 | -123.19277 | 39004 ft | 453 kts | 176° |
| 2026-05-04 15:22 | 40.60116 | -123.19041 | 39017 ft | 453 kts | 176° |
| 2026-05-04 15:22 | 40.50708 | -123.18807 | 39034 ft | 452 kts | 177° |
| 2026-05-04 15:23 | 40.44445 | -123.18652 | 39018 ft | 452 kts | 177° |
| 2026-05-04 15:23 | 40.38172 | -123.18494 | 38907 ft | 451 kts | 177° |
| 2026-05-04 15:24 | 40.31905 | -123.18349 | 38756 ft | 450 kts | 177° |
| 2026-05-04 15:24 | 40.25616 | -123.18197 | 38563 ft | 450 kts | 177° |
| 2026-05-04 15:25 | 40.19392 | -123.18028 | 38533 ft | 447 kts | 177° |
| 2026-05-04 15:26 | 40.09993 | -123.17821 | 38720 ft | 452 kts | 177° |
| 2026-05-04 15:26 | 40.00637 | -123.17580 | 38859 ft | 450 kts | 177° |
| 2026-05-04 15:27 | 39.91253 | -123.17291 | 38966 ft | 449 kts | 177° |
| 2026-05-04 15:28 | 39.81857 | -123.16836 | 38960 ft | 450 kts | 177° |
| 2026-05-04 15:29 | 39.72575 | -123.16382 | 38873 ft | 444 kts | 177° |
| 2026-05-04 15:30 | 39.50920 | -123.15383 | 38754 ft | 445 kts | 178° |
| 2026-05-04 15:31 | 39.41690 | -123.14958 | 38790 ft | 444 kts | 178° |
| 2026-05-04 15:32 | 39.26244 | -123.14253 | 38933 ft | 444 kts | 178° |
| 2026-05-04 15:34 | 39.10874 | -123.13219 | 38121 ft | 440 kts | 169° |
| 2026-05-04 15:34 | 39.07963 | -123.12123 | 37786 ft | 434 kts | 158° |
| 2026-05-04 15:34 | 39.02667 | -123.08504 | 36739 ft | 434 kts | 149° |
| 2026-05-04 15:35 | 38.97568 | -123.04343 | 35438 ft | 439 kts | 147° |
| 2026-05-04 15:35 | 38.95031 | -123.02228 | 34812 ft | 441 kts | 147° |
| 2026-05-04 15:35 | 38.92439 | -123.00063 | 34131 ft | 444 kts | 146° |
| 2026-05-04 15:36 | 38.87089 | -122.96134 | 32763 ft | 447 kts | 156° |
| 2026-05-04 15:36 | 38.84186 | -122.94805 | 32231 ft | 444 kts | 161° |
| 2026-05-04 15:36 | 38.81233 | -122.93767 | 31695 ft | 441 kts | 164° |
| 2026-05-04 15:37 | 38.78256 | -122.92870 | 31112 ft | 438 kts | 165° |
| 2026-05-04 15:37 | 38.75287 | -122.92039 | 30518 ft | 435 kts | 165° |
| 2026-05-04 15:37 | 38.72331 | -122.91228 | 29961 ft | 431 kts | 165° |
| 2026-05-04 15:37 | 38.69437 | -122.90430 | 29424 ft | 428 kts | 164° |
| 2026-05-04 15:38 | 38.66563 | -122.89629 | 28854 ft | 425 kts | 164° |
| 2026-05-04 15:38 | 38.63679 | -122.88813 | 28276 ft | 421 kts | 163° |
| 2026-05-04 15:38 | 38.60844 | -122.88002 | 27994 ft | 410 kts | 163° |
| 2026-05-04 15:38 | 38.58084 | -122.87205 | 27939 ft | 412 kts | 163° |
| 2026-05-04 15:39 | 38.55252 | -122.86375 | 27951 ft | 419 kts | 163° |
| 2026-05-04 15:39 | 38.52414 | -122.85541 | 27753 ft | 418 kts | 163° |
| 2026-05-04 15:39 | 38.46816 | -122.83900 | 26718 ft | 414 kts | 163° |
| 2026-05-04 15:40 | 38.44005 | -122.83075 | 26147 ft | 412 kts | 163° |
| 2026-05-04 15:40 | 38.41230 | -122.82261 | 25579 ft | 409 kts | 163° |
| 2026-05-04 15:40 | 38.38487 | -122.81460 | 25028 ft | 406 kts | 163° |
| 2026-05-04 15:40 | 38.35732 | -122.80654 | 24473 ft | 402 kts | 162° |
| 2026-05-04 15:41 | 38.33037 | -122.79865 | 23914 ft | 399 kts | 162° |
| 2026-05-04 15:41 | 38.30341 | -122.79076 | 23356 ft | 395 kts | 162° |
| 2026-05-04 15:41 | 38.27713 | -122.78307 | 22823 ft | 390 kts | 162° |
| 2026-05-04 15:41 | 38.25077 | -122.77537 | 22293 ft | 385 kts | 162° |
| 2026-05-04 15:42 | 38.22464 | -122.76775 | 21773 ft | 381 kts | 162° |
| 2026-05-04 15:42 | 38.19907 | -122.76028 | 21244 ft | 377 kts | 162° |
| 2026-05-04 15:42 | 38.17384 | -122.75294 | 20729 ft | 373 kts | 162° |
| 2026-05-04 15:42 | 38.14851 | -122.74557 | 20213 ft | 369 kts | 163° |
| 2026-05-04 15:43 | 38.12391 | -122.73842 | 19719 ft | 365 kts | 163° |
| 2026-05-04 15:43 | 38.09916 | -122.73122 | 19212 ft | 361 kts | 163° |
| 2026-05-04 15:43 | 38.07466 | -122.72411 | 18709 ft | 357 kts | 163° |
| 2026-05-04 15:43 | 38.05087 | -122.71719 | 18223 ft | 354 kts | 163° |
| 2026-05-04 15:44 | 38.02683 | -122.71021 | 17711 ft | 350 kts | 164° |
| 2026-05-04 15:44 | 38.00320 | -122.70335 | 17171 ft | 347 kts | 164° |
| 2026-05-04 15:44 | 37.97998 | -122.69661 | 16665 ft | 343 kts | 164° |
| 2026-05-04 15:44 | 37.95691 | -122.68993 | 16180 ft | 339 kts | 164° |
| 2026-05-04 15:45 | 37.93401 | -122.68330 | 15711 ft | 334 kts | 164° |
| 2026-05-04 15:45 | 37.91170 | -122.67532 | 15247 ft | 329 kts | 158° |
| 2026-05-04 15:45 | 37.89145 | -122.66323 | 14794 ft | 326 kts | 146° |
| 2026-05-04 15:45 | 37.87268 | -122.64636 | 14321 ft | 330 kts | 140° |
| 2026-05-04 15:46 | 37.85503 | -122.62799 | 13836 ft | 327 kts | 137° |
| 2026-05-04 15:46 | 37.83814 | -122.60958 | 13366 ft | 323 kts | 137° |
| 2026-05-04 15:46 | 37.82121 | -122.59105 | 13007 ft | 318 kts | 137° |
| 2026-05-04 15:46 | 37.80452 | -122.57299 | 12602 ft | 317 kts | 137° |
| 2026-05-04 15:47 | 37.78742 | -122.55465 | 12011 ft | 321 kts | 137° |
| 2026-05-04 15:47 | 37.77055 | -122.53673 | 11522 ft | 319 kts | 138° |
| 2026-05-04 15:47 | 37.75368 | -122.51889 | 11201 ft | 310 kts | 138° |
| 2026-05-04 15:47 | 37.73754 | -122.50187 | 11032 ft | 298 kts | 137° |
| 2026-05-04 15:48 | 37.72187 | -122.48530 | 10984 ft | 290 kts | 137° |
| 2026-05-04 15:48 | 37.70630 | -122.46873 | 10982 ft | 291 kts | 137° |
| 2026-05-04 15:48 | 37.67535 | -122.43573 | 10982 ft | 293 kts | 138° |
| 2026-05-04 15:49 | 37.65975 | -122.41912 | 10990 ft | 293 kts | 138° |
| 2026-05-04 15:49 | 37.64408 | -122.40253 | 10995 ft | 293 kts | 138° |
| 2026-05-04 15:49 | 37.62864 | -122.38606 | 10956 ft | 294 kts | 138° |
| 2026-05-04 15:49 | 37.61271 | -122.36944 | 10691 ft | 293 kts | 139° |
| 2026-05-04 15:50 | 37.59569 | -122.35539 | 10404 ft | 290 kts | 151° |
| 2026-05-04 15:50 | 37.57772 | -122.34492 | 10159 ft | 283 kts | 155° |
| 2026-05-04 15:50 | 37.55972 | -122.33528 | 9900 ft | 278 kts | 154° |
| 2026-05-04 15:50 | 37.54217 | -122.32494 | 9648 ft | 276 kts | 153° |
| 2026-05-04 15:51 | 37.52516 | -122.31453 | 9399 ft | 270 kts | 153° |
| 2026-05-04 15:51 | 37.50848 | -122.30405 | 9144 ft | 264 kts | 155° |
| 2026-05-04 15:51 | 37.49168 | -122.29594 | 8901 ft | 259 kts | 161° |
| 2026-05-04 15:51 | 37.47431 | -122.28954 | 8644 ft | 254 kts | 164° |
| 2026-05-04 15:52 | 37.45765 | -122.28349 | 8397 ft | 250 kts | 163° |
| 2026-05-04 15:52 | 37.44105 | -122.27731 | 8145 ft | 246 kts | 163° |
| 2026-05-04 15:52 | 37.42461 | -122.27099 | 7900 ft | 245 kts | 163° |
| 2026-05-04 15:52 | 37.40852 | -122.26463 | 7650 ft | 244 kts | 163° |
| 2026-05-04 15:53 | 37.39231 | -122.25822 | 7399 ft | 243 kts | 163° |
| 2026-05-04 15:53 | 37.37606 | -122.25171 | 7143 ft | 242 kts | 163° |
| 2026-05-04 15:53 | 37.36017 | -122.24545 | 6900 ft | 241 kts | 163° |
| 2026-05-04 15:53 | 37.34402 | -122.23895 | 6642 ft | 241 kts | 163° |
| 2026-05-04 15:54 | 37.32802 | -122.23252 | 6394 ft | 240 kts | 163° |
| 2026-05-04 15:54 | 37.31255 | -122.22502 | 6142 ft | 240 kts | 149° |
| 2026-05-04 15:54 | 37.30103 | -122.21048 | 6010 ft | 239 kts | 119° |
| 2026-05-04 15:54 | 37.29713 | -122.19009 | 6006 ft | 243 kts | 87° |
| 2026-05-04 15:55 | 37.30049 | -122.16930 | 6004 ft | 244 kts | 73° |
| 2026-05-04 15:55 | 37.30549 | -122.14893 | 5999 ft | 244 kts | 72° |
| 2026-05-04 15:55 | 37.31053 | -122.12883 | 5998 ft | 244 kts | 71° |
| 2026-05-04 15:55 | 37.31876 | -122.11028 | 5997 ft | 244 kts | 49° |
| 2026-05-04 15:56 | 37.33235 | -122.09782 | 5998 ft | 243 kts | 19° |
| 2026-05-04 15:56 | 37.34899 | -122.09500 | 6001 ft | 242 kts | 354° |
| 2026-05-04 15:56 | 37.36517 | -122.10009 | 5998 ft | 238 kts | 332° |
| 2026-05-04 15:56 | 37.37857 | -122.11212 | 6002 ft | 237 kts | 317° |
| 2026-05-04 15:57 | 37.39181 | -122.12479 | 5888 ft | 240 kts | 332° |
| 2026-05-04 15:57 | 37.40738 | -122.13167 | 5706 ft | 236 kts | 345° |
| 2026-05-04 15:57 | 37.42318 | -122.13622 | 5527 ft | 230 kts | 346° |
| 2026-05-04 15:57 | 37.43858 | -122.14078 | 5350 ft | 223 kts | 345° |
| 2026-05-04 15:58 | 37.45335 | -122.14558 | 5146 ft | 220 kts | 344° |
| 2026-05-04 15:58 | 37.46834 | -122.15054 | 4728 ft | 227 kts | 344° |
| 2026-05-04 15:58 | 37.48400 | -122.15570 | 4247 ft | 236 kts | 344° |
| 2026-05-04 15:58 | 37.50004 | -122.16099 | 3766 ft | 237 kts | 344° |
| 2026-05-04 15:59 | 37.51568 | -122.16624 | 3476 ft | 229 kts | 344° |
| 2026-05-04 15:59 | 37.53051 | -122.17207 | 3273 ft | 217 kts | 336° |
| 2026-05-04 15:59 | 37.54223 | -122.18295 | 3055 ft | 206 kts | 307° |
| 2026-05-04 15:59 | 37.54788 | -122.19901 | 2878 ft | 197 kts | 287° |
| 2026-05-04 16:00 | 37.55291 | -122.21481 | 2588 ft | 195 kts | 296° |
| 2026-05-04 16:00 | 37.55915 | -122.22935 | 2331 ft | 180 kts | 299° |
| 2026-05-04 16:00 | 37.56488 | -122.24251 | 2108 ft | 166 kts | 298° |
| 2026-05-04 16:00 | 37.57013 | -122.25491 | 1894 ft | 154 kts | 299° |
| 2026-05-04 16:01 | 37.57511 | -122.26626 | 1715 ft | 141 kts | 299° |
| 2026-05-04 16:01 | 37.57960 | -122.27708 | 1504 ft | 136 kts | 297° |
| 2026-05-04 16:01 | 37.58397 | -122.28743 | 1299 ft | 131 kts | 298° |
| 2026-05-04 16:01 | 37.58826 | -122.29757 | 1124 ft | 133 kts | 298° |
| 2026-05-04 16:02 | 37.59258 | -122.30777 | 939 ft | 128 kts | 298° |
| 2026-05-04 16:02 | 37.59675 | -122.31763 | 768 ft | 127 kts | 298° |
| 2026-05-04 16:02 | 37.60496 | -122.33707 | 425 ft | 124 kts | 299° |
| 2026-05-04 16:03 | 37.60896 | -122.34652 | 259 ft | 123 kts | 298° |
| 2026-05-04 16:03 | 37.61305 | -122.35622 | 100 ft | 126 kts | 298° |
| 2026-05-04 16:03 | 37.61721 | -122.36589 | 12 ft | 114 kts | 297° |
| 2026-05-04 16:03 | 37.61994 | -122.37257 | 15 ft | 61 kts | 297° |
| 2026-05-04 16:04 | 37.62166 | -122.37658 | 24 ft | 44 kts | 295° |
| 2026-05-04 16:04 | 37.62230 | -122.38178 | 30 ft | 21 kts | 268° |
| 2026-05-04 16:04 | 37.62223 | -122.38361 | 30 ft | 20 kts | 265° |
| 2026-05-04 16:05 | 37.62213 | -122.38522 | 30 ft | 15 kts | 267° |
| 2026-05-04 16:05 | 37.62177 | -122.38632 | 31 ft | 13 kts | 187° |
| 2026-05-04 16:05 | 37.62058 | -122.38470 | 31 ft | 13 kts | 152° |
| 2026-05-04 16:06 | 37.61991 | -122.38446 | 31 ft | 2 kts | 175° |
| 2026-05-04 16:06 | 37.61988 | -122.38445 | 31 ft | 0 kts | 175° |